Yemassee, SC (29945)

3:14 PM EDT on September 02, 2014 (GMT -0400)
RAWS SAVANNAH PORTABLE SC US | Change Station
CLOSE
Current Station
Personal Weather Station
Location: Yemassee, SC
Elevation: 6 ft
Nearby Weather Stations

Elev 6 ft 32.66 °N, 80.72 °W | Updated 51 minutes ago

Mostly Cloudy
Mostly Cloudy
92 °F
Feels Like 103 °F
N
4
Wind Variable Wind from ESE
Gusts 8.0 mph

Today
High -- | Low -- °F
--% Chance of Precip.
Yesterday
High -- | Low -- °F
Precip. -- in
6:58 AM 7:46 PM
First Quarter, 54% visible
Pressure 30.02 in
Visibility 10.0 miles
Clouds Scattered Clouds 3500 ft
Mostly Cloudy 10000 ft
Mostly Cloudy 20000 ft
Heat Index 103 °F
Dew Point 75 °F
Humidity 58%
Rainfall 0.00 in
Snow Depth Not available.
UV 6 out of 12
Pollen 8.60 out of 12
Air Quality Not available.
Flu Activity Not available.
METAR KNBC 021856Z 19007KT 10SM TS SCT035CB BKN100 BKN200 32/24 A3002 RMK AO2 TSB21 PRESFR SLP164 OCNL LTGICCCCG VC TS 12W MOV E T03170244

More Conditions Fewer Conditions

Pressure 30.02 in
Visibility 10.0 miles
Clouds Scattered Clouds 3500 ft
Mostly Cloudy 10000 ft
Mostly Cloudy 20000 ft
Heat Index 103 °F
Dew Point 75 °F
Humidity 58%
Rainfall 0.00 in
Snow Depth Not available.
UV 6 out of 12
Pollen 8.60 out of 12
Air Quality Not available.
Flu Activity Not available.
METAR KNBC 021856Z 19007KT 10SM TS SCT035CB BKN100 BKN200 32/24 A3002 RMK AO2 TSB21 PRESFR SLP164 OCNL LTGICCCCG VC TS 12W MOV E T03170244

More Conditions Fewer Conditions

10-Day Weather Forecast

Almanac

Astronomy

Sep. 02, 2014 Rise Set
Actual Time 6:58 AM EDT 7:46 PM EDT
Civil Twilight 6:33 AM EDT 8:11 PM EDT
Nautical Twilight 6:03 AM EDT 8:40 PM EDT
Astronomical Twilight 5:33 AM EDT 9:10 PM EDT
Moon 2:18 PM EDT 12:09 AM EDT
Length of Visible Light 13h 37m
Length of Day
12h 47m
Tomorrow will be 1m 56s shorter.
First Quarter, 54% of the Moon is Illuminated
Today
First Quarter
Sep 8
Full
Sep 15
Last Quarter
Sep 24
New
Oct 1
First Quarter

Today's Extremes

State Highs State Lows

Community

WunderPhotos

Upload Photos

1,749,746 photos uploaded!

WunderBlogs® & News

By Dr. Jeff Masters
Director of Meteorology, Weather Underground
By Kari Strenfel
Meteorologist, Weather Underground
By Christopher C. Burt
Weather Historian, Weather Underground
September 2, 2014
September 2, 2014
September 2, 2014

Nearby

Snow Depth

Station Depth Elevation
No new snow has been reported.

Earthquake Activity

City Distance Mag. Time & Date
No recent earthquake activity has been reported nearby.
Minimum magnitude displayed is 2.5.

Coastal Water Temperatures

Place Temperature
No Stations Reporting

Nearby Weather Stations